KIAH/IAH METAR and TAF weather

Enter ICAO airport designator
Station Type Date Time Source
KIAH METAR 2019/12/07 06:53 UTC NOAA

KIAH 070653Z 34008KT 10SM FEW250 14/08 A3022 RMK AO2 SLP233 T01440078


Station Type Date Time Source
KIAH Decoded METAR 2019/12/07 06:53 UTC NOAA

HOUSTON INTERCONTINENTAL, TX, United States (KIAH) 30-00N 095-22W 36M
Dec 07, 2019 - 01:53 AM EST / 2019.12.07 0653 UTC
Wind: from the NNW (340 degrees) at 9 MPH (8 KT):0
Visibility: 10 mile(s):0
Sky conditions: mostly clear
Temperature: 57.9 F (14.4 C)
Dew Point: 46.0 F (7.8 C)
Relative Humidity: 64%
Pressure (altimeter): 30.22 in. Hg (1023 hPa)
ob: KIAH 070653Z 34008KT 10SM FEW250 14/08 A3022 RMK AO2 SLP233 T01440078
cycle: 7

Station Type Date Time Source
KIAH TAF 2019/12/07 06:48 UTC NOAA

TAF KIAH 070545Z 0706/0812 33006KT P6SM FEW250
FM071400 01006KT P6SM FEW030 SCT250
FM071800 VRB05KT P6SM FEW200
FM080900 00000KT P6SM FEW030

Example: see airport list